createdAt,value
2023-12-23T00:00:15.565Z,7.5
2023-12-23T00:01:21.832Z,7.6
2023-12-23T00:02:28.104Z,7.5
2023-12-23T00:03:34.378Z,7.5
2023-12-23T00:04:40.646Z,7.6
2023-12-23T00:05:46.916Z,7.5
2023-12-23T00:06:53.188Z,7.6
2023-12-23T00:07:59.458Z,7.6
2023-12-23T00:09:05.727Z,7.6
2023-12-23T00:10:12.017Z,7.6
2023-12-23T00:11:17.286Z,7.6
2023-12-23T00:12:23.571Z,7.5
2023-12-23T00:13:29.826Z,7.5
2023-12-23T00:14:36.095Z,7.5
2023-12-23T00:15:42.386Z,7.5
2023-12-23T00:16:48.648Z,7.5
2023-12-23T00:17:54.929Z,7.6
2023-12-23T00:19:01.195Z,7.6
2023-12-23T00:20:07.477Z,7.6
2023-12-23T00:21:13.736Z,7.6
2023-12-23T00:22:20.017Z,7.6
2023-12-23T00:23:26.381Z,7.6
2023-12-23T00:24:32.570Z,7.6
2023-12-23T00:25:37.850Z,7.6
2023-12-23T00:26:44.132Z,7.6
2023-12-23T00:27:50.435Z,7.6
2023-12-23T00:28:56.665Z,7.6
2023-12-23T00:30:02.935Z,7.6
2023-12-23T00:31:09.199Z,7.6
2023-12-23T00:32:15.484Z,7.6
2023-12-23T00:33:21.754Z,7.6
2023-12-23T00:34:28.025Z,7.6
2023-12-23T00:35:34.309Z,7.6
2023-12-23T00:36:40.567Z,7.6
2023-12-23T00:37:46.860Z,7.6
2023-12-23T00:38:53.111Z,7.6
2023-12-23T00:39:58.408Z,7.6
2023-12-23T00:41:04.678Z,7.6
2023-12-23T00:42:10.942Z,7.6
2023-12-23T00:43:17.212Z,7.6
2023-12-23T00:44:23.513Z,7.6
2023-12-23T00:45:29.758Z,7.6
2023-12-23T00:46:36.032Z,7.6
2023-12-23T00:47:42.291Z,7.5
2023-12-23T00:48:48.574Z,7.5
2023-12-23T00:49:54.851Z,7.5
2023-12-23T00:51:01.144Z,7.6
2023-12-23T00:52:07.388Z,7.5
2023-12-23T00:53:13.668Z,7.5
2023-12-23T00:54:18.958Z,7.5
2023-12-23T00:55:25.220Z,7.4
2023-12-23T00:56:31.501Z,7.4
2023-12-23T00:57:37.796Z,7.4
2023-12-23T00:58:44.035Z,7.4
2023-12-23T00:59:50.321Z,7.4
2023-12-23T01:00:56.586Z,7.4
2023-12-23T01:02:02.857Z,7.3
2023-12-23T01:03:09.123Z,7.3
2023-12-23T01:04:15.403Z,7.3
2023-12-23T01:05:21.675Z,7.3
2023-12-23T01:06:27.941Z,7.2
2023-12-23T01:07:34.222Z,7.2
2023-12-23T01:08:39.516Z,7.2
2023-12-23T01:09:45.782Z,7.2
2023-12-23T01:10:52.054Z,7.2
2023-12-23T01:11:58.321Z,7.2
2023-12-23T01:13:04.595Z,7.2
2023-12-23T01:14:10.866Z,7.2
2023-12-23T01:15:17.152Z,7.2
2023-12-23T01:16:23.418Z,7.2
2023-12-23T01:17:29.679Z,7.2
2023-12-23T01:18:35.950Z,7.2
2023-12-23T01:19:42.228Z,7.2
2023-12-23T01:20:48.506Z,7.2
2023-12-23T01:21:54.766Z,7.2
2023-12-23T01:23:00.062Z,7.1
2023-12-23T01:24:06.329Z,7.1
2023-12-23T01:25:12.611Z,7
2023-12-23T01:26:18.895Z,7
2023-12-23T01:27:25.152Z,7
2023-12-23T01:28:31.417Z,7
2023-12-23T01:29:37.702Z,7.1
2023-12-23T01:30:43.961Z,7.1
2023-12-23T01:31:50.232Z,7.1
2023-12-23T01:32:56.501Z,7.1
2023-12-23T01:34:02.785Z,7.1
2023-12-23T01:35:09.059Z,7.1
2023-12-23T01:36:15.316Z,7.1
2023-12-23T01:37:20.611Z,7.1
2023-12-23T01:38:26.891Z,7.1
2023-12-23T01:39:33.168Z,7
2023-12-23T01:40:39.435Z,7
2023-12-23T01:41:45.704Z,7
2023-12-23T01:42:51.983Z,7
2023-12-23T01:43:58.261Z,7
2023-12-23T01:45:04.521Z,7
2023-12-23T01:46:10.797Z,7.1
2023-12-23T01:47:17.065Z,7.1
2023-12-23T01:48:23.337Z,7.1
2023-12-23T01:49:29.604Z,7.1
2023-12-23T01:50:35.881Z,7.1
2023-12-23T01:51:41.170Z,7
2023-12-23T01:52:47.440Z,7
2023-12-23T01:53:53.710Z,7.1
2023-12-23T01:54:59.983Z,7.1
2023-12-23T01:56:06.258Z,7.1
2023-12-23T01:57:12.538Z,7
2023-12-23T01:58:18.800Z,7
2023-12-23T01:59:25.075Z,7
2023-12-23T02:00:31.343Z,7
2023-12-23T02:01:37.620Z,7
2023-12-23T02:02:43.890Z,7
2023-12-23T02:03:50.164Z,7
2023-12-23T02:04:56.440Z,6.9
2023-12-23T02:06:01.724Z,6.9
2023-12-23T02:07:07.997Z,6.9
2023-12-23T02:08:14.279Z,6.9
2023-12-23T02:09:20.541Z,6.9
2023-12-23T02:10:26.809Z,6.8
2023-12-23T02:11:33.086Z,6.8
2023-12-23T02:12:38.383Z,6.8
2023-12-23T02:13:44.655Z,6.7
2023-12-23T02:14:50.923Z,6.7
2023-12-23T02:15:57.191Z,6.7
2023-12-23T02:17:03.465Z,6.7
2023-12-23T02:18:09.741Z,6.7
2023-12-23T02:19:16.013Z,6.7
2023-12-23T02:20:22.282Z,6.7
2023-12-23T02:21:28.556Z,6.7
2023-12-23T02:22:34.841Z,6.7
2023-12-23T02:23:41.100Z,6.7
2023-12-23T02:24:47.378Z,6.7
2023-12-23T02:25:53.647Z,6.7
2023-12-23T02:26:58.932Z,6.7
2023-12-23T02:28:05.205Z,6.7
2023-12-23T02:29:11.485Z,6.7
2023-12-23T02:30:17.752Z,6.7
2023-12-23T02:31:24.026Z,6.7
2023-12-23T02:32:30.343Z,6.7
2023-12-23T02:33:36.553Z,6.7
2023-12-23T02:34:42.843Z,6.8
2023-12-23T02:35:49.115Z,6.8
2023-12-23T02:36:55.396Z,6.9
2023-12-23T02:38:01.650Z,6.9
2023-12-23T02:39:07.930Z,6.9
2023-12-23T02:40:14.199Z,6.9
2023-12-23T02:41:19.502Z,6.9
2023-12-23T02:42:25.766Z,6.8
2023-12-23T02:43:32.035Z,6.8
2023-12-23T02:44:38.309Z,6.8
2023-12-23T02:45:44.576Z,6.8
2023-12-23T02:46:50.852Z,6.8
2023-12-23T02:47:57.124Z,6.8
2023-12-23T02:49:03.388Z,6.8
2023-12-23T02:50:09.660Z,6.8
2023-12-23T02:51:15.943Z,6.8
2023-12-23T02:52:22.210Z,6.7
2023-12-23T02:53:28.483Z,6.8
2023-12-23T02:54:34.752Z,6.7
2023-12-23T02:55:40.041Z,6.8
2023-12-23T02:56:46.320Z,6.7
2023-12-23T02:57:52.580Z,6.7
2023-12-23T02:58:58.854Z,6.7
2023-12-23T03:00:05.132Z,6.8
2023-12-23T03:01:11.404Z,6.8
2023-12-23T03:02:17.672Z,6.8
2023-12-23T03:03:23.954Z,6.7
2023-12-23T03:04:30.224Z,6.8
2023-12-23T03:05:36.493Z,6.8
2023-12-23T03:06:42.771Z,6.8
2023-12-23T03:07:49.034Z,6.8
2023-12-23T03:08:55.312Z,6.8
2023-12-23T03:10:00.592Z,6.9
2023-12-23T03:11:06.857Z,6.9
2023-12-23T03:12:13.133Z,6.9
2023-12-23T03:13:19.411Z,7
2023-12-23T03:14:25.685Z,6.9
2023-12-23T03:15:31.961Z,6.9
2023-12-23T03:16:38.231Z,6.8
2023-12-23T03:17:44.494Z,6.8
2023-12-23T03:18:50.779Z,6.8
2023-12-23T03:19:57.045Z,6.8
2023-12-23T03:21:03.317Z,6.8
2023-12-23T03:22:09.590Z,6.8
2023-12-23T03:23:15.866Z,6.8
2023-12-23T03:24:21.148Z,6.8
2023-12-23T03:25:27.420Z,6.8
2023-12-23T03:26:33.695Z,6.7
2023-12-23T03:27:39.965Z,6.7
2023-12-23T03:28:46.238Z,6.7
2023-12-23T03:29:52.511Z,6.7
2023-12-23T03:30:58.782Z,6.7
2023-12-23T03:32:05.077Z,6.6
2023-12-23T03:33:11.322Z,6.6
2023-12-23T03:34:17.610Z,6.6
2023-12-23T03:35:23.900Z,6.6
2023-12-23T03:36:30.142Z,6.5
2023-12-23T03:37:36.416Z,6.5
2023-12-23T03:38:41.706Z,6.5
2023-12-23T03:39:47.971Z,6.5
2023-12-23T03:40:54.240Z,6.5
2023-12-23T03:42:00.527Z,6.5
2023-12-23T03:43:06.796Z,6.6
2023-12-23T03:44:13.068Z,6.5
2023-12-23T03:45:19.330Z,6.5
2023-12-23T03:46:25.607Z,6.5
2023-12-23T03:47:31.883Z,6.5
2023-12-23T03:48:38.178Z,6.5
2023-12-23T03:49:44.422Z,6.5
2023-12-23T03:50:50.697Z,6.5
2023-12-23T03:51:56.970Z,6.6
2023-12-23T03:53:02.259Z,6.5
2023-12-23T03:54:08.528Z,6.5
2023-12-23T03:55:14.808Z,6.5
2023-12-23T03:56:21.090Z,6.5
2023-12-23T03:57:27.356Z,6.5
2023-12-23T03:58:33.627Z,6.5
2023-12-23T03:59:39.900Z,6.5
2023-12-23T04:00:46.170Z,6.5
2023-12-23T04:01:52.449Z,6.6
2023-12-23T04:02:58.708Z,6.6
2023-12-23T04:04:04.992Z,6.5
2023-12-23T04:05:11.253Z,6.6
2023-12-23T04:06:17.545Z,6.5
2023-12-23T04:07:22.823Z,6.5
2023-12-23T04:08:29.098Z,6.5
2023-12-23T04:09:35.363Z,6.5
2023-12-23T04:10:41.637Z,6.5
2023-12-23T04:11:47.914Z,6.5
2023-12-23T04:12:54.182Z,6.5
2023-12-23T04:14:00.455Z,6.5
2023-12-23T04:15:06.729Z,6.5
2023-12-23T04:16:12.997Z,6.5
2023-12-23T04:17:19.271Z,6.5
2023-12-23T04:18:25.546Z,6.5
2023-12-23T04:19:31.818Z,6.5
2023-12-23T04:20:38.098Z,6.5
2023-12-23T04:21:43.371Z,6.5
2023-12-23T04:22:49.648Z,6.5
2023-12-23T04:23:55.942Z,6.5
2023-12-23T04:25:02.198Z,6.4
2023-12-23T04:26:08.470Z,6.4
2023-12-23T04:27:14.741Z,6.5
2023-12-23T04:28:21.032Z,6.4
2023-12-23T04:29:27.282Z,6.4
2023-12-23T04:30:33.561Z,6.4
2023-12-23T04:31:39.827Z,6.4
2023-12-23T04:32:46.093Z,6.4
2023-12-23T04:33:52.369Z,6.4
2023-12-23T04:34:58.651Z,6.4
2023-12-23T04:36:03.925Z,6.4
2023-12-23T04:37:10.201Z,6.4
2023-12-23T04:38:16.473Z,6.4
2023-12-23T04:39:22.745Z,6.4
2023-12-23T04:40:29.018Z,6.4
2023-12-23T04:41:35.288Z,6.3
2023-12-23T04:42:41.566Z,6.4
2023-12-23T04:43:47.837Z,6.4
2023-12-23T04:44:54.106Z,6.5
2023-12-23T04:46:00.384Z,6.4
2023-12-23T04:47:06.659Z,6.4
2023-12-23T04:48:12.927Z,6.4
2023-12-23T04:49:19.195Z,6.3
2023-12-23T04:50:24.479Z,6.4
2023-12-23T04:51:30.762Z,6.4
2023-12-23T04:52:37.016Z,6.4
2023-12-23T04:53:43.301Z,6.4
2023-12-23T04:54:49.575Z,6.3
2023-12-23T04:55:55.844Z,6.3
2023-12-23T04:57:02.121Z,6.3
2023-12-23T04:58:08.381Z,6.4
2023-12-23T04:59:14.670Z,6.4
2023-12-23T05:00:20.937Z,6.4
2023-12-23T05:01:27.210Z,6.4
2023-12-23T05:02:33.477Z,6.4
2023-12-23T05:03:39.761Z,6.4
2023-12-23T05:04:45.046Z,6.4
2023-12-23T05:05:51.314Z,6.4
2023-12-23T05:06:57.587Z,6.4
2023-12-23T05:08:03.866Z,6.3
2023-12-23T05:09:10.133Z,6.4
2023-12-23T05:10:16.397Z,6.4
2023-12-23T05:11:22.680Z,6.4
2023-12-23T05:12:28.931Z,6.4
2023-12-23T05:13:35.214Z,6.4
2023-12-23T05:14:41.488Z,6.4
2023-12-23T05:15:47.767Z,6.4
2023-12-23T05:16:54.034Z,6.4
2023-12-23T05:18:00.314Z,6.4
2023-12-23T05:19:05.596Z,6.4
2023-12-23T05:20:11.866Z,6.4
2023-12-23T05:21:18.144Z,6.4
2023-12-23T05:22:24.412Z,6.4
2023-12-23T05:23:30.690Z,6.3
2023-12-23T05:24:36.957Z,6.3
2023-12-23T05:25:43.228Z,6.3
2023-12-23T05:26:49.489Z,6.3
2023-12-23T05:27:55.773Z,6.3
2023-12-23T05:29:02.047Z,6.3
2023-12-23T05:30:08.320Z,6.3
2023-12-23T05:31:14.585Z,6.3
2023-12-23T05:32:20.867Z,6.3
2023-12-23T05:33:26.156Z,6.2
2023-12-23T05:34:32.424Z,6.2
2023-12-23T05:35:38.691Z,6.2
2023-12-23T05:36:44.955Z,6.1
2023-12-23T05:37:51.237Z,6.2
2023-12-23T05:38:57.511Z,6.2
2023-12-23T05:40:03.793Z,6.2
2023-12-23T05:41:10.064Z,6.2
2023-12-23T05:42:16.344Z,6.2
2023-12-23T05:43:22.598Z,6.2
2023-12-23T05:44:28.881Z,6.2
2023-12-23T05:45:35.150Z,6.1
2023-12-23T05:46:41.420Z,6.1
2023-12-23T05:47:46.715Z,6.1
2023-12-23T05:48:52.985Z,6.1
2023-12-23T05:49:59.260Z,6.1
2023-12-23T05:51:05.515Z,6.1
2023-12-23T05:52:11.815Z,6.1
2023-12-23T05:53:18.063Z,6.1
2023-12-23T05:54:23.360Z,6.1
2023-12-23T05:55:29.640Z,6.1
2023-12-23T05:56:35.920Z,6.1
2023-12-23T05:57:42.182Z,6.1
2023-12-23T05:58:48.446Z,6.1
2023-12-23T05:59:54.726Z,6.2
2023-12-23T06:01:00.998Z,6.2
2023-12-23T06:02:07.266Z,6.1
2023-12-23T06:03:13.549Z,6.1
2023-12-23T06:04:19.814Z,6.1
2023-12-23T06:05:26.088Z,6.2
2023-12-23T06:06:32.361Z,6.2
2023-12-23T06:07:38.630Z,6.2
2023-12-23T06:08:43.920Z,6.2
2023-12-23T06:09:50.191Z,6.2
2023-12-23T06:10:56.466Z,6.3
2023-12-23T06:12:02.735Z,6.3
2023-12-23T06:13:09.011Z,6.2
2023-12-23T06:14:15.280Z,6.3
2023-12-23T06:15:21.544Z,6.3
2023-12-23T06:16:27.822Z,6.3
2023-12-23T06:17:34.106Z,6.3
2023-12-23T06:18:40.364Z,6.3
2023-12-23T06:19:46.643Z,6.3
2023-12-23T06:20:52.913Z,6.4
2023-12-23T06:21:59.192Z,6.4
2023-12-23T06:23:04.476Z,6.4
2023-12-23T06:24:10.770Z,6.5
2023-12-23T06:25:17.017Z,6.5
2023-12-23T06:26:23.287Z,6.5
2023-12-23T06:27:29.559Z,6.5
2023-12-23T06:28:35.866Z,6.5
2023-12-23T06:29:42.101Z,6.5
2023-12-23T06:30:48.386Z,6.5
2023-12-23T06:31:54.655Z,6.5
2023-12-23T06:33:00.925Z,6.5
2023-12-23T06:34:07.206Z,6.5
2023-12-23T06:35:13.477Z,6.5
2023-12-23T06:36:19.745Z,6.6
2023-12-23T06:37:25.036Z,6.6
2023-12-23T06:38:31.303Z,6.6
2023-12-23T06:39:37.572Z,6.6
2023-12-23T06:40:43.860Z,6.6
2023-12-23T06:41:50.127Z,6.7
2023-12-23T06:42:56.403Z,6.7
2023-12-23T06:44:02.674Z,6.7
2023-12-23T06:45:08.969Z,6.7
2023-12-23T06:46:15.213Z,6.7
2023-12-23T06:47:21.486Z,6.7
2023-12-23T06:48:27.757Z,6.7
2023-12-23T06:49:34.033Z,6.7
2023-12-23T06:50:40.341Z,6.6
2023-12-23T06:51:45.587Z,6.6
2023-12-23T06:52:51.885Z,6.6
2023-12-23T06:53:58.166Z,6.7
2023-12-23T06:55:04.412Z,6.7
2023-12-23T06:56:10.707Z,6.7
2023-12-23T06:57:16.954Z,6.8
2023-12-23T06:58:23.241Z,6.7
2023-12-23T06:59:29.494Z,6.8
2023-12-23T07:00:35.799Z,6.8
2023-12-23T07:01:42.036Z,6.8
2023-12-23T07:02:48.340Z,6.8
2023-12-23T07:03:54.592Z,6.8
2023-12-23T07:05:00.855Z,6.7
2023-12-23T07:06:06.167Z,6.8
2023-12-23T07:07:12.408Z,6.8
2023-12-23T07:08:18.680Z,6.8
2023-12-23T07:09:24.953Z,6.9
2023-12-23T07:10:31.230Z,6.9
2023-12-23T07:11:37.501Z,6.9
2023-12-23T07:12:43.786Z,6.9
2023-12-23T07:13:50.050Z,6.9
2023-12-23T07:14:56.308Z,6.9
2023-12-23T07:16:02.611Z,6.9
2023-12-23T07:17:08.877Z,6.8
2023-12-23T07:18:15.129Z,6.8
2023-12-23T07:19:21.403Z,6.8
2023-12-23T07:20:26.689Z,6.8
2023-12-23T07:21:32.994Z,6.8
2023-12-23T07:22:39.242Z,6.9
2023-12-23T07:23:45.515Z,6.9
2023-12-23T07:24:51.793Z,6.9
2023-12-23T07:25:58.050Z,6.9
2023-12-23T07:27:04.323Z,6.9
2023-12-23T07:28:10.603Z,6.9
2023-12-23T07:29:16.861Z,6.9
2023-12-23T07:30:23.137Z,6.8
2023-12-23T07:31:29.408Z,6.9
2023-12-23T07:32:35.692Z,7
2023-12-23T07:33:41.953Z,7
2023-12-23T07:34:47.236Z,6.9
2023-12-23T07:35:53.521Z,6.9
2023-12-23T07:36:59.788Z,6.9
2023-12-23T07:38:06.059Z,6.9
2023-12-23T07:39:12.337Z,6.9
2023-12-23T07:40:18.592Z,7
2023-12-23T07:41:24.882Z,7
2023-12-23T07:42:31.152Z,7
2023-12-23T07:43:37.434Z,7
2023-12-23T07:44:43.707Z,7.1
2023-12-23T07:45:49.974Z,7.1
2023-12-23T07:46:56.242Z,7.1
2023-12-23T07:48:02.504Z,7.1
2023-12-23T07:49:07.811Z,7.1
2023-12-23T07:50:14.077Z,7.2
2023-12-23T07:51:20.346Z,7.2
2023-12-23T07:52:26.626Z,7.2
2023-12-23T07:53:32.892Z,7.1
2023-12-23T07:54:39.161Z,7.1
2023-12-23T07:55:45.442Z,7.2
2023-12-23T07:56:51.711Z,7.2
2023-12-23T07:57:57.988Z,7.2
2023-12-23T07:59:04.256Z,7.2
2023-12-23T08:00:10.539Z,7.2
2023-12-23T08:01:16.809Z,7.2
2023-12-23T08:02:23.072Z,7.2
2023-12-23T08:03:28.368Z,7.2
2023-12-23T08:04:34.632Z,7.1
2023-12-23T08:05:40.915Z,7.1
2023-12-23T08:06:47.181Z,7.1
2023-12-23T08:07:53.443Z,7.1
2023-12-23T08:08:59.730Z,7.2
2023-12-23T08:10:06.000Z,7.2
2023-12-23T08:11:12.266Z,7.2
2023-12-23T08:12:18.544Z,7.2
2023-12-23T08:13:24.819Z,7.2
2023-12-23T08:14:31.083Z,7.2
2023-12-23T08:15:37.358Z,7.3
2023-12-23T08:16:43.619Z,7.3
2023-12-23T08:17:48.915Z,7.3
2023-12-23T08:18:55.199Z,7.3
2023-12-23T08:20:01.450Z,7.3
2023-12-23T08:21:07.729Z,7.3
2023-12-23T08:22:14.010Z,7.3
2023-12-23T08:23:20.281Z,7.3
2023-12-23T08:24:26.558Z,7.2
2023-12-23T08:25:32.814Z,7.2
2023-12-23T08:26:39.102Z,7.2
2023-12-23T08:27:45.355Z,7.2
2023-12-23T08:28:51.631Z,7.2
2023-12-23T08:29:57.904Z,7.1
2023-12-23T08:31:04.180Z,7.2
2023-12-23T08:32:09.472Z,7.2
2023-12-23T08:33:15.745Z,7.2
2023-12-23T08:34:22.018Z,7.2
2023-12-23T08:35:28.276Z,7.2
2023-12-23T08:36:34.562Z,7.2
2023-12-23T08:37:40.830Z,7.2
2023-12-23T08:38:47.104Z,7.2
2023-12-23T08:39:53.378Z,7.2
2023-12-23T08:40:59.639Z,7.2
2023-12-23T08:42:05.926Z,7.2
2023-12-23T08:43:12.187Z,7.1
2023-12-23T08:44:18.467Z,7.1
2023-12-23T08:45:24.739Z,7.1
2023-12-23T08:46:30.028Z,7.1
2023-12-23T08:47:36.281Z,7.1
2023-12-23T08:48:42.562Z,7.1
2023-12-23T08:49:48.847Z,7.1
2023-12-23T08:50:55.113Z,7
2023-12-23T08:52:01.383Z,7
2023-12-23T08:53:07.653Z,7
2023-12-23T08:54:13.916Z,7
2023-12-23T08:55:20.195Z,7
2023-12-23T08:56:26.472Z,7
2023-12-23T08:57:32.739Z,7
2023-12-23T08:58:39.017Z,7
2023-12-23T08:59:45.278Z,7
2023-12-23T09:00:50.575Z,7
2023-12-23T09:01:56.841Z,7
2023-12-23T09:03:03.119Z,7.1
2023-12-23T09:04:09.391Z,7.1
2023-12-23T09:05:15.679Z,7.1
2023-12-23T09:06:21.939Z,7.1
2023-12-23T09:07:28.206Z,7.1
2023-12-23T09:08:34.479Z,7.1
2023-12-23T09:09:40.741Z,7
2023-12-23T09:10:47.009Z,7
2023-12-23T09:11:53.291Z,6.9
2023-12-23T09:12:59.563Z,7
2023-12-23T09:14:05.829Z,6.9
2023-12-23T09:15:11.137Z,6.9
2023-12-23T09:16:17.402Z,6.9
2023-12-23T09:17:23.682Z,6.9
2023-12-23T09:18:29.948Z,6.8
2023-12-23T09:19:36.211Z,6.8
2023-12-23T09:20:42.486Z,6.8
2023-12-23T09:21:48.776Z,6.9
2023-12-23T09:22:55.035Z,6.9
2023-12-23T09:24:01.322Z,6.9
2023-12-23T09:25:07.584Z,6.9
2023-12-23T09:26:13.858Z,6.9
2023-12-23T09:27:20.124Z,6.9
2023-12-23T09:28:26.403Z,7
2023-12-23T09:29:31.682Z,6.9
2023-12-23T09:30:37.969Z,7
2023-12-23T09:31:44.236Z,6.9
2023-12-23T09:32:50.512Z,7
2023-12-23T09:33:56.775Z,7
2023-12-23T09:35:03.060Z,7
2023-12-23T09:36:08.353Z,7
2023-12-23T09:37:14.610Z,7
2023-12-23T09:38:20.889Z,7
2023-12-23T09:39:27.161Z,7
2023-12-23T09:40:33.438Z,7
2023-12-23T09:41:39.706Z,7
2023-12-23T09:42:45.975Z,7
2023-12-23T09:43:52.252Z,7.1
2023-12-23T09:44:58.523Z,7.1
2023-12-23T09:46:04.796Z,7.1
2023-12-23T09:47:11.064Z,7.1
2023-12-23T09:48:17.336Z,7.1
2023-12-23T09:49:23.684Z,7.1
2023-12-23T09:50:28.897Z,7.1
2023-12-23T09:51:35.172Z,7.1
2023-12-23T09:52:41.457Z,7.1
2023-12-23T09:53:47.709Z,7.1
2023-12-23T09:54:53.987Z,7.1
2023-12-23T09:56:00.259Z,7.1
2023-12-23T09:57:06.531Z,7.1
2023-12-23T09:58:12.798Z,7.1
2023-12-23T09:59:19.074Z,7.1
2023-12-23T10:00:25.342Z,7.1
2023-12-23T10:01:31.620Z,7.1
2023-12-23T10:02:37.884Z,7.1
2023-12-23T10:03:44.160Z,7.1
2023-12-23T10:04:49.529Z,7.1
2023-12-23T10:05:55.726Z,7.1
2023-12-23T10:07:01.989Z,7.1
2023-12-23T10:08:08.302Z,7.1
2023-12-23T10:09:14.532Z,7.1
2023-12-23T10:10:20.809Z,7.1
2023-12-23T10:11:27.080Z,7.1
2023-12-23T10:12:33.350Z,7.1
2023-12-23T10:13:39.626Z,7.1
2023-12-23T10:14:45.899Z,7.1
2023-12-23T10:15:52.174Z,7.1
2023-12-23T10:16:58.445Z,7.1
2023-12-23T10:18:04.711Z,7.1
2023-12-23T10:19:10.006Z,7.1
2023-12-23T10:20:16.280Z,7.1
2023-12-23T10:21:22.548Z,7.1
2023-12-23T10:22:28.814Z,7.1
2023-12-23T10:23:35.089Z,7
2023-12-23T10:24:41.376Z,7
2023-12-23T10:25:47.681Z,7
2023-12-23T10:26:53.915Z,7
2023-12-23T10:28:00.186Z,7
2023-12-23T10:29:06.459Z,6.9
2023-12-23T10:30:12.730Z,6.9
2023-12-23T10:31:18.999Z,6.9
2023-12-23T10:32:25.271Z,6.9
2023-12-23T10:33:30.561Z,6.9
2023-12-23T10:34:36.837Z,6.9
2023-12-23T10:35:43.094Z,6.9
2023-12-23T10:36:49.367Z,6.9
2023-12-23T10:37:55.636Z,6.9
2023-12-23T10:39:01.914Z,6.9
2023-12-23T10:40:08.212Z,6.9
2023-12-23T10:41:14.458Z,7
2023-12-23T10:42:20.770Z,7
2023-12-23T10:43:26.993Z,6.9
2023-12-23T10:44:33.275Z,6.9
2023-12-23T10:45:39.547Z,7
2023-12-23T10:46:45.821Z,7
2023-12-23T10:47:51.096Z,7
2023-12-23T10:48:57.379Z,6.9
2023-12-23T10:50:03.649Z,6.9
2023-12-23T10:51:09.923Z,6.9
2023-12-23T10:52:16.193Z,6.9
2023-12-23T10:53:22.464Z,6.9
2023-12-23T10:54:28.733Z,6.8
2023-12-23T10:55:35.016Z,6.9
2023-12-23T10:56:41.283Z,6.9
2023-12-23T10:57:47.557Z,6.8
2023-12-23T10:58:53.827Z,6.8
2023-12-23T11:00:00.087Z,6.9
2023-12-23T11:01:06.394Z,6.9
2023-12-23T11:02:11.652Z,6.9
2023-12-23T11:03:17.933Z,6.9
2023-12-23T11:04:24.207Z,6.9
2023-12-23T11:05:30.464Z,7
2023-12-23T11:06:36.757Z,7
2023-12-23T11:07:43.042Z,6.9
2023-12-23T11:08:49.294Z,6.9
2023-12-23T11:09:55.578Z,6.9
2023-12-23T11:11:01.842Z,6.9
2023-12-23T11:12:08.100Z,6.9
2023-12-23T11:13:14.393Z,6.9
2023-12-23T11:14:20.669Z,6.9
2023-12-23T11:15:26.946Z,6.9
2023-12-23T11:16:32.213Z,6.8
2023-12-23T11:17:38.487Z,6.8
2023-12-23T11:18:44.757Z,6.8
2023-12-23T11:19:51.023Z,6.8
2023-12-23T11:20:57.382Z,6.8
2023-12-23T11:22:03.576Z,6.8
2023-12-23T11:23:09.846Z,6.8
2023-12-23T11:24:16.115Z,6.9
2023-12-23T11:25:22.380Z,6.9
2023-12-23T11:26:28.658Z,6.9
2023-12-23T11:27:34.934Z,6.8
2023-12-23T11:28:41.219Z,6.8
2023-12-23T11:29:47.493Z,6.8
2023-12-23T11:30:52.775Z,6.8
2023-12-23T11:31:59.038Z,6.8
2023-12-23T11:33:05.318Z,6.8
2023-12-23T11:34:11.584Z,6.8
2023-12-23T11:35:17.851Z,6.8
2023-12-23T11:36:24.127Z,6.8
2023-12-23T11:37:30.398Z,6.8
2023-12-23T11:38:36.676Z,6.8
2023-12-23T11:39:42.948Z,6.7
2023-12-23T11:40:49.213Z,6.8
2023-12-23T11:41:55.482Z,6.8
2023-12-23T11:43:01.757Z,6.8
2023-12-23T11:44:08.042Z,6.7
2023-12-23T11:45:13.319Z,6.7
2023-12-23T11:46:19.612Z,6.7
2023-12-23T11:47:25.857Z,6.7
2023-12-23T11:48:32.137Z,6.7
2023-12-23T11:49:38.407Z,6.7
2023-12-23T11:50:44.679Z,6.7
2023-12-23T11:51:50.960Z,6.6
2023-12-23T11:52:57.240Z,6.6
2023-12-23T11:54:03.495Z,6.6
2023-12-23T11:55:09.763Z,6.6
2023-12-23T11:56:16.043Z,6.6
2023-12-23T11:57:22.309Z,6.6
2023-12-23T11:58:28.592Z,6.5
2023-12-23T11:59:33.879Z,6.5
2023-12-23T12:00:40.140Z,6.5
2023-12-23T12:01:46.410Z,6.5
2023-12-23T12:02:52.677Z,6.5
2023-12-23T12:03:58.971Z,6.5
2023-12-23T12:05:05.228Z,6.5
2023-12-23T12:06:11.511Z,6.5
2023-12-23T12:07:17.775Z,6.5
2023-12-23T12:08:24.057Z,6.4
2023-12-23T12:09:30.320Z,6.5
2023-12-23T12:10:36.598Z,6.5
2023-12-23T12:11:42.876Z,6.4
2023-12-23T12:12:49.148Z,6.4
2023-12-23T12:13:54.432Z,6.4
2023-12-23T12:15:00.704Z,6.4
2023-12-23T12:16:06.978Z,6.4
2023-12-23T12:17:13.278Z,6.4
2023-12-23T12:18:19.517Z,6.4
2023-12-23T12:19:25.793Z,6.4
2023-12-23T12:20:32.062Z,6.4
2023-12-23T12:21:38.336Z,6.4
2023-12-23T12:22:44.612Z,6.4
2023-12-23T12:23:50.889Z,6.4
2023-12-23T12:24:57.153Z,6.4
2023-12-23T12:26:03.429Z,6.4
2023-12-23T12:27:09.700Z,6.4
2023-12-23T12:28:14.992Z,6.4
2023-12-23T12:29:21.258Z,6.4
2023-12-23T12:30:27.531Z,6.4
2023-12-23T12:31:33.805Z,6.4
2023-12-23T12:32:40.288Z,6.4
2023-12-23T12:33:46.346Z,6.5
2023-12-23T12:34:52.627Z,6.5
2023-12-23T12:35:58.893Z,6.4
2023-12-23T12:37:05.167Z,6.4
2023-12-23T12:38:11.438Z,6.4
2023-12-23T12:39:17.706Z,6.5
2023-12-23T12:40:23.985Z,6.5
2023-12-23T12:41:30.273Z,6.5
2023-12-23T12:42:35.544Z,6.5
2023-12-23T12:43:41.825Z,6.5
2023-12-23T12:44:48.085Z,6.5
2023-12-23T12:45:54.357Z,6.5
2023-12-23T12:47:00.630Z,6.5
2023-12-23T12:48:06.898Z,6.5
2023-12-23T12:49:13.177Z,6.5
2023-12-23T12:50:19.447Z,6.5
2023-12-23T12:51:25.721Z,6.5
2023-12-23T12:52:31.997Z,6.5
2023-12-23T12:53:38.266Z,6.5
2023-12-23T12:54:44.534Z,6.5
2023-12-23T12:55:50.806Z,6.5
2023-12-23T12:56:56.105Z,6.5
2023-12-23T12:58:02.379Z,6.5
2023-12-23T12:59:08.641Z,6.5
2023-12-23T13:00:14.923Z,6.5
2023-12-23T13:01:21.194Z,6.6
2023-12-23T13:02:27.459Z,6.6
2023-12-23T13:03:33.728Z,6.6
2023-12-23T13:04:40.007Z,6.6
2023-12-23T13:05:46.280Z,6.6
2023-12-23T13:06:52.541Z,6.6
2023-12-23T13:07:58.827Z,6.6
2023-12-23T13:09:05.101Z,6.6
2023-12-23T13:10:11.361Z,6.6
2023-12-23T13:11:16.657Z,6.6
2023-12-23T13:12:22.924Z,6.7
2023-12-23T13:13:29.203Z,6.7
2023-12-23T13:14:35.471Z,6.7
2023-12-23T13:15:41.748Z,6.7
2023-12-23T13:16:48.004Z,6.8
2023-12-23T13:17:53.299Z,6.8
2023-12-23T13:18:59.575Z,6.8
2023-12-23T13:20:05.844Z,6.8
2023-12-23T13:21:12.123Z,6.8
2023-12-23T13:22:18.388Z,6.7
2023-12-23T13:23:24.664Z,6.7
2023-12-23T13:24:30.940Z,6.7
2023-12-23T13:25:37.207Z,6.8
2023-12-23T13:26:43.483Z,6.9
2023-12-23T13:27:49.757Z,6.9
2023-12-23T13:28:56.023Z,6.9
2023-12-23T13:30:02.293Z,7
2023-12-23T13:31:08.569Z,7
2023-12-23T13:32:13.857Z,6.9
2023-12-23T13:33:20.127Z,6.9
2023-12-23T13:34:26.408Z,6.9
2023-12-23T13:35:32.664Z,6.9
2023-12-23T13:36:38.940Z,6.9
2023-12-23T13:37:45.210Z,6.9
2023-12-23T13:38:51.485Z,6.9
2023-12-23T13:39:57.769Z,6.9
2023-12-23T13:41:04.033Z,6.9
2023-12-23T13:42:10.299Z,6.9
2023-12-23T13:43:16.586Z,6.9
2023-12-23T13:44:22.894Z,6.9
2023-12-23T13:45:29.126Z,6.9
2023-12-23T13:46:34.414Z,6.9
2023-12-23T13:47:40.677Z,6.9
2023-12-23T13:48:46.966Z,7
2023-12-23T13:49:53.232Z,6.9
2023-12-23T13:50:59.490Z,6.9
2023-12-23T13:52:05.794Z,6.9
2023-12-23T13:53:12.054Z,6.9
2023-12-23T13:54:18.320Z,6.9
2023-12-23T13:55:24.589Z,6.9
2023-12-23T13:56:30.861Z,6.9
2023-12-23T13:57:37.139Z,6.9
2023-12-23T13:58:43.408Z,6.9
2023-12-23T13:59:49.678Z,6.9
2023-12-23T14:00:54.972Z,6.9
2023-12-23T14:02:01.236Z,6.8
2023-12-23T14:03:07.509Z,6.9
2023-12-23T14:04:13.783Z,6.9
2023-12-23T14:05:20.095Z,6.8
2023-12-23T14:06:26.335Z,6.8
2023-12-23T14:07:32.589Z,6.8
2023-12-23T14:08:38.869Z,6.8
2023-12-23T14:09:45.149Z,6.8
2023-12-23T14:10:51.515Z,6.8
2023-12-23T14:11:57.692Z,6.8
2023-12-23T14:13:03.960Z,6.7
2023-12-23T14:14:10.244Z,6.7
2023-12-23T14:15:15.546Z,6.8
2023-12-23T14:16:21.796Z,6.8
2023-12-23T14:17:28.100Z,6.8
2023-12-23T14:18:34.333Z,6.7
2023-12-23T14:19:40.615Z,6.7
2023-12-23T14:20:46.880Z,6.7
2023-12-23T14:21:53.176Z,6.7
2023-12-23T14:22:59.424Z,6.7
2023-12-23T14:24:05.705Z,6.8
2023-12-23T14:25:11.971Z,6.8
2023-12-23T14:26:18.247Z,6.7
2023-12-23T14:27:24.517Z,6.7
2023-12-23T14:28:30.783Z,6.7
2023-12-23T14:29:36.075Z,6.7
2023-12-23T14:30:42.343Z,6.7
2023-12-23T14:31:48.618Z,6.7
2023-12-23T14:32:54.898Z,6.8
2023-12-23T14:34:01.169Z,6.9
2023-12-23T14:35:07.425Z,6.9
2023-12-23T14:36:13.702Z,6.9
2023-12-23T14:37:19.980Z,6.9
2023-12-23T14:38:26.262Z,7
2023-12-23T14:39:32.536Z,6.9
2023-12-23T14:40:38.798Z,6.9
2023-12-23T14:41:45.070Z,6.9
2023-12-23T14:42:51.342Z,6.9
2023-12-23T14:43:56.635Z,6.9
2023-12-23T14:45:02.918Z,7
2023-12-23T14:46:09.183Z,7
2023-12-23T14:47:15.450Z,6.9
2023-12-23T14:48:21.756Z,6.8
2023-12-23T14:49:28.001Z,6.8
2023-12-23T14:50:34.291Z,6.8
2023-12-23T14:51:40.537Z,6.8
2023-12-23T14:52:46.805Z,6.8
2023-12-23T14:53:53.081Z,6.8
2023-12-23T14:54:59.354Z,6.8
2023-12-23T14:56:05.629Z,6.8
2023-12-23T14:57:11.899Z,6.8
2023-12-23T14:58:17.189Z,6.8
2023-12-23T14:59:23.457Z,6.7
2023-12-23T15:00:29.728Z,6.7
2023-12-23T15:01:36.007Z,6.7
2023-12-23T15:02:42.269Z,6.7
2023-12-23T15:03:48.560Z,6.6
2023-12-23T15:04:54.812Z,6.7
2023-12-23T15:06:01.113Z,6.6
2023-12-23T15:07:07.358Z,6.6
2023-12-23T15:08:13.647Z,6.6
2023-12-23T15:09:19.911Z,6.6
2023-12-23T15:10:26.189Z,6.6
2023-12-23T15:11:32.451Z,6.6
2023-12-23T15:12:37.735Z,6.6
2023-12-23T15:13:44.014Z,6.6
2023-12-23T15:14:50.278Z,6.6
2023-12-23T15:15:56.555Z,6.6